Time;durP1;ratioP1;P1;durP2;ratioP2;P2;SDS_P1;SDS_P2;PMS_P1;PMS_P2;Temp;Humidity;BMP_temperature;BMP_pressure;BME280_temperature;BME280_humidity;BME280_pressure;Samples;Min_cycle;Max_cycle;Signal;HPM_P1;HPM_P2
2023/03/08 00:00:34;;;;;;;4.68;0.43;;;0.20;99.90;;;;;;4977671;28;20540;-63
2023/03/08 00:03:01;;;;;;;5.13;0.50;;;-0.80;99.90;;;;;;4977363;28;20035;-64
2023/03/08 00:05:27;;;;;;;3.20;0.60;;;-0.20;99.90;;;;;;4978178;28;20555;-64
2023/03/08 00:07:53;;;;;;;4.47;0.70;;;-0.10;99.90;;;;;;4977717;28;20457;-63
2023/03/08 00:10:20;;;;;;;1.95;0.60;;;-1.00;99.90;;;;;;5010862;28;20052;-63
2023/03/08 00:12:45;;;;;;;3.05;0.90;;;-0.20;99.90;;;;;;4978816;28;20220;-64
2023/03/08 00:15:11;;;;;;;5.78;1.00;;;-0.30;99.90;;;;;;4993429;28;20677;-64
2023/03/08 00:17:38;;;;;;;2.78;0.95;;;-0.40;99.90;;;;;;4977476;28;20046;-64
2023/03/08 00:20:09;;;;;;;5.38;1.33;;;-0.40;99.90;;;;;;4975671;28;20080;-64
2023/03/08 00:22:36;;;;;;;4.45;1.45;;;-0.70;99.90;;;;;;4977754;28;20037;-64
2023/03/08 00:25:03;;;;;;;4.00;1.50;;;-1.30;99.90;;;;;;4977387;28;20549;-63
2023/03/08 00:27:29;;;;;;;6.57;1.75;;;-1.40;99.90;;;;;;4960128;28;20512;-62
2023/03/08 00:29:55;;;;;;;3.35;1.52;;;-1.30;99.90;;;;;;4963406;28;20096;-63
2023/03/08 00:32:23;;;;;;;5.53;1.83;;;-0.40;99.90;;;;;;5009629;28;20038;-63
2023/03/08 00:34:50;;;;;;;4.07;1.55;;;-1.40;99.90;;;;;;4978702;28;20057;-62
2023/03/08 00:37:16;;;;;;;5.10;1.80;;;-0.50;99.90;;;;;;4977396;28;20046;-63
2023/03/08 00:39:42;;;;;;;5.32;1.40;;;-0.90;99.90;;;;;;4975433;28;20045;-62
2023/03/08 00:42:07;;;;;;;2.83;1.45;;;-1.40;99.90;;;;;;4976690;28;20038;-62
2023/03/08 00:44:33;;;;;;;5.00;1.50;;;-1.10;99.90;;;;;;4993284;28;20042;-63
2023/03/08 00:46:59;;;;;;;2.17;0.90;;;-1.60;99.90;;;;;;4978342;28;20054;-61
2023/03/08 00:49:25;;;;;;;4.70;1.08;;;-0.60;99.90;;;;;;4976827;28;20109;-63
2023/03/08 00:51:51;;;;;;;5.82;1.20;;;-1.50;99.90;;;;;;4980258;28;20049;-61
2023/03/08 00:54:16;;;;;;;4.07;0.95;;;-0.60;99.90;;;;;;4975936;28;20090;-62
2023/03/08 00:56:42;;;;;;;3.85;0.75;;;-0.70;99.90;;;;;;4978373;28;20042;-62
2023/03/08 00:59:08;;;;;;;3.47;0.90;;;-1.30;99.90;;;;;;4977368;28;20531;-62
2023/03/08 01:01:33;;;;;;;3.85;1.00;;;-1.40;99.90;;;;;;4996210;28;20638;-63
2023/03/08 01:04:01;;;;;;;4.70;0.95;;;-1.30;99.90;;;;;;4976243;28;20041;-63
2023/03/08 01:06:26;;;;;;;3.08;0.65;;;-0.70;99.90;;;;;;4962487;28;20038;-64
2023/03/08 01:08:52;;;;;;;4.10;0.88;;;-1.00;99.90;;;;;;4977003;28;20436;-63
2023/03/08 01:11:23;;;;;;;5.53;1.30;;;-1.20;99.90;;;;;;4978031;28;20057;-64
2023/03/08 01:13:50;;;;;;;3.53;0.70;;;-1.30;99.90;;;;;;4993619;28;20077;-62
2023/03/08 01:16:26;;;;;;;5.13;0.80;;;-1.40;99.90;;;;;;4995780;28;20066;-63
2023/03/08 01:18:53;;;;;;;2.97;0.77;;;-0.90;99.90;;;;;;4978892;28;20508;-62
2023/03/08 01:21:20;;;;;;;7.25;1.10;;;-1.40;99.90;;;;;;4980273;28;20128;-62
2023/03/08 01:23:46;;;;;;;5.18;1.15;;;-1.10;99.90;;;;;;4978031;28;20034;-62
2023/03/08 01:26:15;;;;;;;5.15;0.90;;;-0.80;99.90;;;;;;4977289;28;20046;-63
2023/03/08 01:31:34;;;;;;;4.07;1.27;;;-0.80;99.90;;;;;;4978847;28;20412;-61
2023/03/08 01:34:12;;;;;;;2.72;1.08;;;-1.50;99.90;;;;;;4974948;28;20388;-63
2023/03/08 01:36:53;;;;;;;8.13;1.20;;;-1.60;99.90;;;;;;5007669;28;20042;-62
2023/03/08 01:39:21;;;;;;;4.55;1.40;;;-0.80;99.90;;;;;;4993082;28;20439;-62
2023/03/08 01:41:47;;;;;;;5.18;0.68;;;-1.40;99.90;;;;;;4991675;28;20098;-61
2023/03/08 01:44:18;;;;;;;4.05;0.98;;;-0.80;99.90;;;;;;4979101;28;20642;-61
2023/03/08 01:46:44;;;;;;;2.35;1.00;;;-0.70;99.90;;;;;;5009749;28;20352;-63
2023/03/08 01:49:24;;;;;;;6.55;0.95;;;-1.50;99.90;;;;;;5007200;28;20034;-62
2023/03/08 01:52:01;;;;;;;5.03;0.90;;;-1.40;99.90;;;;;;4977467;28;20069;-62
2023/03/08 01:54:45;;;;;;;4.50;0.60;;;-1.20;99.90;;;;;;4994361;28;20042;-63
2023/03/08 01:57:33;;;;;;;4.18;0.70;;;-1.50;99.90;;;;;;4978114;28;20049;-62
2023/03/08 02:00:11;;;;;;;4.63;0.65;;;-1.70;99.90;;;;;;5007881;28;20442;-63
2023/03/08 02:02:42;;;;;;;4.35;0.70;;;-1.70;99.90;;;;;;4976258;28;20038;-64
2023/03/08 02:05:10;;;;;;;4.80;1.00;;;-1.50;99.90;;;;;;4976000;28;20076;-63
2023/03/08 02:07:35;;;;;;;3.97;0.80;;;-1.50;99.90;;;;;;4989266;28;20309;-62
2023/03/08 02:10:02;;;;;;;3.72;1.00;;;-0.90;99.90;;;;;;4990527;28;20042;-63
2023/03/08 02:12:28;;;;;;;3.42;1.00;;;-1.40;99.90;;;;;;4992113;28;20213;-64
2023/03/08 02:14:56;;;;;;;3.53;0.73;;;-1.80;99.90;;;;;;4992730;28;20585;-63
2023/03/08 02:17:22;;;;;;;1.92;0.80;;;-1.10;99.90;;;;;;4977075;28;20529;-64
2023/03/08 02:20:11;;;;;;;3.35;0.93;;;-1.40;99.90;;;;;;4959594;28;20050;-62
2023/03/08 02:22:39;;;;;;;3.70;1.13;;;-1.30;99.90;;;;;;4973464;28;20245;-64
2023/03/08 02:25:14;;;;;;;3.47;0.90;;;-1.50;99.90;;;;;;5005713;28;20544;-62
2023/03/08 02:27:40;;;;;;;5.47;0.73;;;-2.10;99.90;;;;;;5006014;28;20089;-63
2023/03/08 02:30:13;;;;;;;5.10;0.90;;;-1.50;99.90;;;;;;4990668;28;20436;-61
2023/03/08 02:32:39;;;;;;;5.50;1.23;;;-1.90;99.90;;;;;;4974949;28;20046;-62
2023/03/08 02:35:05;;;;;;;2.63;0.98;;;-1.90;99.90;;;;;;4975368;28;20250;-61
2023/03/08 02:37:31;;;;;;;5.55;1.02;;;-2.10;99.90;;;;;;5007825;28;20073;-62
2023/03/08 02:39:57;;;;;;;4.35;0.88;;;-2.20;99.90;;;;;;5007945;28;20050;-62
2023/03/08 02:42:23;;;;;;;4.88;0.80;;;-2.00;99.90;;;;;;4994880;28;20046;-62
2023/03/08 02:44:49;;;;;;;3.72;0.68;;;-1.80;99.90;;;;;;4974504;28;20085;-62
2023/03/08 02:47:14;;;;;;;4.75;0.98;;;-2.40;99.90;;;;;;4979832;28;20061;-63
2023/03/08 02:49:40;;;;;;;2.63;0.60;;;-1.60;99.90;;;;;;4974579;28;20042;-64
2023/03/08 02:52:06;;;;;;;3.30;0.75;;;-1.50;99.90;;;;;;5006514;28;20163;-63
2023/03/08 02:54:34;;;;;;;2.90;0.70;;;-2.30;99.90;;;;;;5006055;28;20104;-63
2023/03/08 02:56:59;;;;;;;5.15;0.80;;;-2.40;99.90;;;;;;5005737;28;20133;-63
2023/03/08 02:59:25;;;;;;;6.75;0.70;;;-1.80;99.90;;;;;;4960492;28;20042;-63
2023/03/08 03:01:51;;;;;;;2.58;0.80;;;-1.50;99.90;;;;;;4975680;28;20073;-63
2023/03/08 03:04:17;;;;;;;3.50;0.80;;;-2.00;99.90;;;;;;4959335;28;20539;-62
2023/03/08 03:06:43;;;;;;;3.90;0.70;;;-1.90;99.90;;;;;;4979523;28;20357;-62
2023/03/08 03:09:09;;;;;;;4.88;0.88;;;-1.40;99.90;;;;;;4961367;28;20326;-61
2023/03/08 03:11:35;;;;;;;3.28;0.80;;;-2.20;99.90;;;;;;4977208;28;20407;-63
2023/03/08 03:14:01;;;;;;;5.53;0.98;;;-1.70;99.90;;;;;;4976530;28;20042;-61
2023/03/08 03:16:27;;;;;;;5.43;0.80;;;-1.40;99.90;;;;;;4975204;28;20258;-62
2023/03/08 03:18:54;;;;;;;4.57;0.80;;;-1.50;99.90;;;;;;4977678;28;20050;-61
2023/03/08 03:21:21;;;;;;;2.75;0.77;;;-1.40;99.90;;;;;;4977117;28;20038;-61
2023/03/08 03:23:47;;;;;;;2.30;0.80;;;-2.30;99.90;;;;;;4976657;28;20732;-61
2023/03/08 03:26:17;;;;;;;4.93;0.95;;;-2.40;99.90;;;;;;5008712;28;20053;-61
2023/03/08 03:28:43;;;;;;;5.38;0.80;;;-1.90;99.90;;;;;;4992211;28;20517;-62
2023/03/08 03:31:12;;;;;;;2.67;0.88;;;-1.50;99.90;;;;;;4976754;28;20095;-61
2023/03/08 03:33:38;;;;;;;4.18;0.68;;;-1.50;99.90;;;;;;4996635;28;20046;-61
2023/03/08 03:36:04;;;;;;;4.75;0.95;;;-1.70;99.90;;;;;;4999379;28;20054;-61
2023/03/08 03:38:30;;;;;;;3.15;1.00;;;-2.00;99.90;;;;;;4977685;28;20313;-63
2023/03/08 03:41:04;;;;;;;3.65;1.00;;;-1.60;99.90;;;;;;4991831;28;20075;-62
2023/03/08 03:43:30;;;;;;;3.47;1.00;;;-2.00;99.90;;;;;;4978811;28;20038;-64
2023/03/08 03:46:02;;;;;;;4.60;1.20;;;-1.90;99.90;;;;;;4994740;28;20108;-64
2023/03/08 03:48:28;;;;;;;2.25;0.80;;;-1.80;99.90;;;;;;4981366;28;20042;-64
2023/03/08 03:51:02;;;;;;;3.20;0.77;;;-1.90;99.90;;;;;;4978849;28;20516;-63
2023/03/08 03:53:29;;;;;;;2.65;0.70;;;-1.60;99.90;;;;;;4961278;28;20050;-64
2023/03/08 03:55:55;;;;;;;2.80;0.70;;;-2.40;99.90;;;;;;5010195;28;20515;-63
2023/03/08 03:58:21;;;;;;;4.95;0.88;;;-2.20;99.90;;;;;;4993424;28;20133;-63
2023/03/08 04:00:46;;;;;;;4.65;0.73;;;-1.70;99.90;;;;;;5007367;28;20052;-62
2023/03/08 04:03:12;;;;;;;3.45;0.90;;;-1.50;99.90;;;;;;4994408;28;20038;-63
2023/03/08 04:05:38;;;;;;;4.90;0.70;;;-2.10;99.90;;;;;;4942816;28;20474;-63
2023/03/08 04:08:06;;;;;;;1.92;0.38;;;-1.30;99.90;;;;;;5008888;28;20141;-63
2023/03/08 04:10:32;;;;;;;4.70;0.60;;;-2.00;99.90;;;;;;4975597;28;20553;-63
2023/03/08 04:12:58;;;;;;;5.30;0.70;;;-1.00;99.90;;;;;;4991652;28;20068;-63
2023/03/08 04:15:24;;;;;;;2.17;0.40;;;-1.20;99.90;;;;;;4992584;28;20125;-63
2023/03/08 04:17:51;;;;;;;4.22;0.70;;;-1.70;99.90;;;;;;4991611;28;20034;-63
2023/03/08 04:20:17;;;;;;;2.05;0.47;;;-1.40;99.90;;;;;;4992082;28;20667;-63
2023/03/08 04:22:42;;;;;;;2.70;0.45;;;-1.50;99.90;;;;;;4992318;28;20683;-63
2023/03/08 04:25:08;;;;;;;2.97;0.50;;;-0.90;99.90;;;;;;4992480;28;20921;-63
2023/03/08 04:27:34;;;;;;;1.85;0.63;;;-1.40;99.90;;;;;;5009003;28;20073;-63
2023/03/08 04:30:00;;;;;;;3.65;0.70;;;-1.50;99.90;;;;;;4978443;28;20054;-62
2023/03/08 04:32:26;;;;;;;7.45;0.80;;;-1.80;99.90;;;;;;4993268;28;20285;-64
2023/03/08 04:34:52;;;;;;;4.47;0.70;;;-1.50;99.90;;;;;;4978098;28;20282;-64
2023/03/08 04:37:17;;;;;;;3.42;0.70;;;-2.00;99.90;;;;;;4994415;28;20666;-64
2023/03/08 04:39:43;;;;;;;7.07;0.80;;;-2.10;99.90;;;;;;4977535;28;20323;-62
2023/03/08 04:42:09;;;;;;;5.72;0.70;;;-1.50;99.90;;;;;;4959914;28;20112;-63
2023/03/08 04:44:34;;;;;;;1.77;0.63;;;-1.50;99.90;;;;;;4974676;28;20041;-63
2023/03/08 04:47:00;;;;;;;4.68;0.75;;;-2.10;99.90;;;;;;5007284;28;20289;-63
2023/03/08 04:49:26;;;;;;;5.13;1.20;;;-2.20;99.90;;;;;;4992749;28;20435;-64
2023/03/08 04:51:52;;;;;;;7.00;1.08;;;-2.40;99.90;;;;;;5006588;28;20042;-63
2023/03/08 04:54:17;;;;;;;5.97;1.10;;;-2.30;99.90;;;;;;4977554;28;20058;-64
2023/03/08 04:56:43;;;;;;;2.38;0.93;;;-1.90;99.90;;;;;;4991811;28;20042;-64
2023/03/08 04:59:09;;;;;;;4.13;0.88;;;-2.40;99.90;;;;;;4976514;28;20045;-64
2023/03/08 05:01:34;;;;;;;3.70;0.60;;;-1.70;99.90;;;;;;4990011;28;20111;-64
2023/03/08 05:04:00;;;;;;;5.95;1.08;;;-2.50;99.90;;;;;;4977811;28;20042;-63
2023/03/08 05:06:27;;;;;;;4.57;0.98;;;-1.70;99.90;;;;;;4976131;28;20046;-63
2023/03/08 05:08:54;;;;;;;4.30;1.10;;;-2.00;99.90;;;;;;4975838;28;20049;-63
2023/03/08 05:11:25;;;;;;;4.07;0.70;;;-2.40;99.90;;;;;;4977893;28;20050;-62
2023/03/08 05:13:53;;;;;;;5.45;1.00;;;-2.50;99.90;;;;;;5007512;28;20034;-63
2023/03/08 05:16:19;;;;;;;3.42;0.75;;;-2.50;99.90;;;;;;5010674;28;20046;-63
2023/03/08 05:18:45;;;;;;;4.82;1.00;;;-2.50;99.90;;;;;;4977227;28;20038;-63
2023/03/08 05:21:13;;;;;;;2.90;0.80;;;-2.20;99.90;;;;;;4976651;28;20045;-64
2023/03/08 05:23:40;;;;;;;5.60;0.88;;;-2.60;99.90;;;;;;4975967;28;20034;-64
2023/03/08 05:26:07;;;;;;;3.95;0.65;;;-2.50;99.90;;;;;;4960592;28;20041;-64
2023/03/08 05:28:35;;;;;;;7.75;0.73;;;-2.60;99.90;;;;;;4976232;28;20431;-62
2023/03/08 05:31:02;;;;;;;4.70;1.00;;;-1.80;99.90;;;;;;4976975;28;20042;-63
2023/03/08 05:33:28;;;;;;;9.85;0.95;;;-2.60;99.90;;;;;;4975930;28;20536;-64
2023/03/08 05:35:54;;;;;;;5.97;1.17;;;-2.10;99.90;;;;;;4975467;28;20125;-63
2023/03/08 05:38:21;;;;;;;4.80;1.20;;;-1.70;99.90;;;;;;4975821;28;20661;-63
2023/03/08 05:40:47;;;;;;;6.50;1.08;;;-1.70;99.90;;;;;;4975592;28;20041;-63
2023/03/08 05:43:14;;;;;;;3.10;1.20;;;-2.30;99.90;;;;;;5006968;28;20057;-64
2023/03/08 05:45:39;;;;;;;6.38;1.10;;;-2.40;99.90;;;;;;5008032;28;20497;-62
2023/03/08 05:48:05;;;;;;;3.17;1.30;;;-1.80;99.90;;;;;;4986766;28;20103;-63
2023/03/08 05:50:31;;;;;;;6.15;1.25;;;-2.20;99.90;;;;;;4976132;28;20034;-63
2023/03/08 05:52:57;;;;;;;6.93;1.17;;;-2.70;99.90;;;;;;4993753;28;20141;-63
2023/03/08 05:55:23;;;;;;;5.60;1.33;;;-2.10;99.90;;;;;;4977095;28;20045;-63
2023/03/08 05:57:48;;;;;;;5.28;1.33;;;-2.00;99.90;;;;;;4990432;28;20464;-62
2023/03/08 06:00:15;;;;;;;5.35;1.30;;;-2.30;99.90;;;;;;4979363;28;20789;-63
2023/03/08 06:02:40;;;;;;;7.82;1.80;;;-2.70;99.90;;;;;;4976268;28;20046;-63
2023/03/08 06:05:07;;;;;;;4.68;1.48;;;-2.70;99.90;;;;;;5009088;28;20322;-64
2023/03/08 06:07:32;;;;;;;4.38;1.63;;;-2.50;99.90;;;;;;5008861;28;20388;-63
2023/03/08 06:09:58;;;;;;;6.07;1.70;;;-2.00;99.90;;;;;;4977206;28;20042;-64
2023/03/08 06:12:24;;;;;;;5.57;1.50;;;-2.40;99.90;;;;;;5008505;28;20045;-63
2023/03/08 06:14:49;;;;;;;9.40;1.55;;;-2.60;99.90;;;;;;4962007;28;20040;-64
2023/03/08 06:17:15;;;;;;;4.60;1.50;;;-2.40;99.90;;;;;;4977352;28;20049;-63
2023/03/08 06:19:41;;;;;;;11.43;1.77;;;-2.50;99.90;;;;;;4991296;28;20038;-63
2023/03/08 06:22:07;;;;;;;6.10;1.80;;;-2.60;99.90;;;;;;4991255;28;20069;-63
2023/03/08 06:24:32;;;;;;;6.88;1.65;;;-2.50;99.90;;;;;;5010882;28;20510;-64
2023/03/08 06:26:58;;;;;;;7.25;1.80;;;-2.20;99.90;;;;;;4978584;28;20057;-63
2023/03/08 06:29:24;;;;;;;4.45;1.70;;;-1.80;99.90;;;;;;5008153;28;20401;-63
2023/03/08 06:31:50;;;;;;;6.95;1.58;;;-2.00;99.90;;;;;;4976557;28;20100;-63
2023/03/08 06:34:16;;;;;;;5.97;1.73;;;-2.00;99.90;;;;;;4973708;28;20054;-63
2023/03/08 06:36:42;;;;;;;5.20;2.03;;;-2.40;99.90;;;;;;4991853;28;20089;-64
2023/03/08 06:39:08;;;;;;;4.80;1.88;;;-1.50;99.90;;;;;;4979044;28;20543;-63
2023/03/08 06:41:34;;;;;;;6.47;1.90;;;-1.50;99.90;;;;;;4991467;28;20668;-63
2023/03/08 06:44:00;;;;;;;7.70;1.98;;;-2.30;99.90;;;;;;4975786;28;20070;-63
2023/03/08 06:46:26;;;;;;;6.47;1.90;;;-2.00;99.90;;;;;;4978879;28;20137;-63
2023/03/08 06:48:53;;;;;;;8.88;2.25;;;-2.10;1.00;;;;;;4992809;28;20258;-64
2023/03/08 06:51:19;;;;;;;6.32;1.95;;;-1.80;1.00;;;;;;4991771;28;20112;-63
2023/03/08 06:53:46;;;;;;;6.25;1.60;;;-1.60;1.00;;;;;;4976690;28;20160;-63
2023/03/08 06:56:15;;;;;;;6.15;1.75;;;-1.30;1.00;;;;;;4975147;28;20035;-64
2023/03/08 06:58:40;;;;;;;8.48;1.73;;;-1.00;1.00;;;;;;4979840;28;20050;-63
2023/03/08 07:01:08;;;;;;;6.18;1.73;;;-1.90;1.00;;;;;;4976850;28;20048;-63
2023/03/08 07:03:34;;;;;;;5.25;1.58;;;-1.50;1.00;;;;;;4975141;28;20573;-64
2023/03/08 07:06:05;;;;;;;4.28;1.33;;;-1.00;1.00;;;;;;4992428;28;20038;-64
2023/03/08 07:08:32;;;;;;;10.35;2.35;;;-0.80;1.00;;;;;;4980244;28;20349;-63
2023/03/08 07:10:58;;;;;;;7.90;1.75;;;-1.50;1.00;;;;;;4980457;28;20046;-63
2023/03/08 07:13:24;;;;;;;6.95;1.52;;;-1.50;1.00;;;;;;5011664;28;20548;-64
2023/03/08 07:15:51;;;;;;;5.88;1.98;;;-0.80;1.00;;;;;;4978112;28;20041;-64
2023/03/08 07:18:17;;;;;;;8.75;2.22;;;-1.40;1.00;;;;;;4996379;28;20146;-63
2023/03/08 07:20:42;;;;;;;4.50;1.77;;;-0.80;1.00;;;;;;4986400;28;20076;-62
2023/03/08 07:23:11;;;;;;;4.30;2.25;;;-1.30;1.00;;;;;;4983021;28;20042;-62
2023/03/08 07:25:39;;;;;;;4.80;1.73;;;-0.50;1.00;;;;;;4981938;28;20101;-62
2023/03/08 07:28:05;;;;;;;7.25;1.98;;;-1.10;1.00;;;;;;4982104;28;20264;-61
2023/03/08 07:30:30;;;;;;;11.25;2.20;;;-0.30;1.00;;;;;;5008798;28;20567;-62
2023/03/08 07:32:56;;;;;;;5.95;1.75;;;-0.10;1.00;;;;;;5001298;28;20042;-62
2023/03/08 07:35:22;;;;;;;5.10;2.17;;;-0.70;1.00;;;;;;4994659;28;20078;-62
2023/03/08 07:37:47;;;;;;;3.97;2.10;;;0.00;1.00;;;;;;4977475;28;20046;-63
2023/03/08 07:40:15;;;;;;;5.72;2.17;;;-0.20;1.00;;;;;;5005339;28;20261;-63
2023/03/08 07:42:42;;;;;;;4.90;2.22;;;-0.20;1.00;;;;;;5007732;28;20054;-64
2023/03/08 07:45:09;;;;;;;3.85;1.67;;;0.00;1.00;;;;;;5009118;28;20050;-64
2023/03/08 07:47:35;;;;;;;4.28;1.77;;;-0.30;1.00;;;;;;5004086;28;20046;-64
2023/03/08 07:50:01;;;;;;;3.67;2.17;;;0.30;1.00;;;;;;4980445;28;20057;-62
2023/03/08 07:52:30;;;;;;;6.75;1.80;;;0.50;1.00;;;;;;5001203;28;20440;-64
2023/03/08 07:54:56;;;;;;;5.22;2.33;;;0.30;1.00;;;;;;5010857;28;20044;-64
2023/03/08 07:57:22;;;;;;;6.72;2.72;;;0.60;1.00;;;;;;4964504;28;20094;-64
2023/03/08 07:59:49;;;;;;;6.60;3.17;;;0.20;1.00;;;;;;4993669;28;20038;-62
2023/03/08 08:02:16;;;;;;;5.50;3.10;;;0.60;1.00;;;;;;4993229;28;20101;-63
2023/03/08 08:04:42;;;;;;;4.30;3.35;;;0.60;1.00;;;;;;4991243;28;20543;-63
2023/03/08 08:07:13;;;;;;;8.13;4.57;;;0.10;1.00;;;;;;4992441;28;20041;-63
2023/03/08 08:09:39;;;;;;;8.55;5.63;;;0.30;99.90;;;;;;4991208;28;20050;-63
2023/03/08 08:12:05;;;;;;;9.02;5.28;;;0.30;99.90;;;;;;4993218;28;20057;-63
2023/03/08 08:14:31;;;;;;;6.60;5.15;;;0.60;99.90;;;;;;5002403;28;20612;-63
2023/03/08 08:16:56;;;;;;;8.25;6.18;;;0.30;99.90;;;;;;5009083;28;20046;-63
2023/03/08 08:19:23;;;;;;;8.32;6.40;;;0.10;99.90;;;;;;4960669;28;20284;-64
2023/03/08 08:21:48;;;;;;;7.50;5.93;;;0.60;99.90;;;;;;4977682;28;20333;-64
2023/03/08 08:24:14;;;;;;;7.50;6.63;;;0.60;99.90;;;;;;4980181;28;20133;-63
2023/03/08 08:26:40;;;;;;;10.43;6.32;;;0.70;99.90;;;;;;4992730;28;20049;-63
2023/03/08 08:29:07;;;;;;;10.18;6.70;;;0.80;99.90;;;;;;4976982;28;20042;-63
2023/03/08 08:31:32;;;;;;;8.25;6.07;;;0.60;99.90;;;;;;4991160;28;20108;-64
2023/03/08 08:33:58;;;;;;;10.73;5.97;;;0.70;1.00;;;;;;5010526;28;20046;-63
2023/03/08 08:36:25;;;;;;;7.50;5.72;;;1.30;1.00;;;;;;4977944;28;20054;-63
2023/03/08 08:38:51;;;;;;;7.68;5.80;;;1.20;99.90;;;;;;4979291;28;20037;-63
2023/03/08 08:41:19;;;;;;;9.23;5.32;;;1.40;99.90;;;;;;4978889;28;20461;-63
2023/03/08 08:43:46;;;;;;;7.80;5.30;;;1.30;99.90;;;;;;4997552;28;20135;-63
2023/03/08 08:46:13;;;;;;;8.60;5.55;;;1.20;99.90;;;;;;5010372;28;20048;-64
2023/03/08 08:48:39;;;;;;;7.55;5.22;;;1.40;99.90;;;;;;4991944;28;20082;-63
2023/03/08 08:51:07;;;;;;;7.20;5.30;;;1.60;99.90;;;;;;4976887;28;20042;-63
2023/03/08 08:53:33;;;;;;;8.32;5.03;;;1.80;99.90;;;;;;4978634;28;20034;-64
2023/03/08 08:56:08;;;;;;;8.68;4.35;;;1.80;99.90;;;;;;4977209;28;20714;-63
2023/03/08 08:58:34;;;;;;;4.60;4.15;;;1.90;1.00;;;;;;4977227;28;20137;-63
2023/03/08 09:00:59;;;;;;;7.15;3.85;;;2.20;99.90;;;;;;4974035;28;20411;-63
2023/03/08 09:03:25;;;;;;;6.10;4.57;;;2.20;99.90;;;;;;4995642;28;20612;-64
2023/03/08 09:05:51;;;;;;;7.35;4.22;;;2.20;99.90;;;;;;4962895;28;20049;-63
2023/03/08 09:08:16;;;;;;;8.13;4.60;;;2.20;99.90;;;;;;5008566;28;20468;-64
2023/03/08 09:10:42;;;;;;;6.45;4.10;;;2.20;1.00;;;;;;4980701;28;20049;-64
2023/03/08 09:13:08;;;;;;;8.10;4.20;;;2.50;99.90;;;;;;4977213;28;20319;-64
2023/03/08 09:15:35;;;;;;;6.75;4.03;;;2.60;99.90;;;;;;4977731;28;20048;-62
2023/03/08 09:18:01;;;;;;;7.30;3.50;;;2.80;99.90;;;;;;4976431;28;20637;-63
2023/03/08 09:20:26;;;;;;;5.00;3.38;;;2.70;99.90;;;;;;4978059;28;20038;-63
2023/03/08 09:22:52;;;;;;;4.32;3.35;;;2.90;99.90;;;;;;4983709;28;20042;-64
2023/03/08 09:25:19;;;;;;;7.53;3.35;;;3.20;99.90;;;;;;4976740;28;20054;-64
2023/03/08 09:27:47;;;;;;;4.63;3.05;;;3.10;99.90;;;;;;4980148;28;20061;-64
2023/03/08 09:30:14;;;;;;;6.38;3.03;;;3.40;99.90;;;;;;4992399;28;20602;-64
2023/03/08 09:32:40;;;;;;;4.93;2.75;;;3.40;99.90;;;;;;4976991;28;20137;-64
2023/03/08 09:35:06;;;;;;;4.30;2.15;;;3.50;99.90;;;;;;4976836;28;20325;-64
2023/03/08 09:37:32;;;;;;;5.25;2.17;;;3.50;99.90;;;;;;4976789;28;20053;-61
2023/03/08 09:39:58;;;;;;;2.75;1.85;;;3.50;99.90;;;;;;5006324;28;20093;-63
2023/03/08 09:42:28;;;;;;;3.85;1.77;;;3.50;99.90;;;;;;4980868;28;20042;-63
2023/03/08 09:45:27;;;;;;;4.53;1.88;;;3.50;99.90;;;;;;4998143;28;20401;-63
2023/03/08 09:48:11;;;;;;;5.72;1.67;;;3.70;99.90;;;;;;4975019;28;20670;-63
2023/03/08 09:51:08;;;;;;;4.05;1.75;;;3.90;99.90;;;;;;4983401;28;20162;-62
2023/03/08 09:53:53;;;;;;;3.58;1.30;;;3.90;99.90;;;;;;4989422;28;20053;-62
2023/03/08 09:56:39;;;;;;;4.88;1.67;;;4.00;99.90;;;;;;4998766;28;20057;-62
2023/03/08 09:59:10;;;;;;;3.78;1.60;;;4.20;99.90;;;;;;4982704;28;20482;-63
2023/03/08 10:02:05;;;;;;;4.10;2.75;;;4.30;99.90;;;;;;4998350;28;20476;-64
2023/03/08 10:04:42;;;;;;;5.47;3.03;;;4.60;99.90;;;;;;4974696;28;20339;-64
2023/03/08 10:07:24;;;;;;;5.95;3.20;;;4.60;99.90;;;;;;4978706;28;20069;-62
2023/03/08 10:10:13;;;;;;;6.18;2.97;;;4.70;99.90;;;;;;4999150;28;20189;-63
2023/03/08 10:13:06;;;;;;;3.60;2.33;;;4.80;99.90;;;;;;4959514;28;20081;-63
2023/03/08 10:15:40;;;;;;;8.68;2.60;;;5.00;99.90;;;;;;5007815;28;20587;-65
2023/03/08 10:18:12;;;;;;;;;;;5.00;99.90;;;;;;5010406;28;20053;-62
2023/03/08 10:20:40;;;;;;;5.47;2.10;;;4.80;1.00;;;;;;4981249;28;19928;-62
2023/03/08 10:23:12;;;;;;;4.28;2.08;;;5.10;99.90;;;;;;5009391;28;20495;-63
2023/03/08 10:25:38;;;;;;;5.20;2.40;;;5.20;99.90;;;;;;4982121;28;20041;-63
2023/03/08 10:28:11;;;;;;;5.30;2.20;;;5.20;99.90;;;;;;4985245;28;20224;-63
2023/03/08 10:30:50;;;;;;;4.63;2.35;;;5.30;99.90;;;;;;4997919;28;20786;-64
2023/03/08 10:33:18;;;;;;;5.18;2.13;;;5.40;99.90;;;;;;5008516;28;20077;-62
2023/03/08 10:36:01;;;;;;;5.35;2.25;;;5.60;99.90;;;;;;4975969;28;20409;-63
2023/03/08 10:38:30;;;;;;;4.90;1.77;;;5.80;99.90;;;;;;4975935;28;20472;-63
2023/03/08 10:41:08;;;;;;;2.15;0.90;;;6.00;99.90;;;;;;4976888;28;20108;-64
2023/03/08 10:43:39;;;;;;;5.97;1.77;;;6.10;99.90;;;;;;5003853;28;20309;-63
2023/03/08 10:46:11;;;;;;;5.05;1.70;;;5.90;99.90;;;;;;4993733;28;20451;-64
2023/03/08 10:48:37;;;;;;;5.15;1.92;;;5.90;99.90;;;;;;4986635;28;20038;-62
2023/03/08 10:51:06;;;;;;;3.08;1.50;;;5.70;99.90;;;;;;4989001;28;20487;-63
2023/03/08 10:53:32;;;;;;;4.88;1.88;;;6.00;99.90;;;;;;4973947;28;20334;-63
2023/03/08 10:56:00;;;;;;;2.88;1.85;;;6.20;99.90;;;;;;4976157;28;20392;-63
2023/03/08 10:58:39;;;;;;;3.58;1.50;;;6.50;99.90;;;;;;5006031;28;20038;-62
2023/03/08 11:01:25;;;;;;;5.43;1.50;;;6.60;99.90;;;;;;4977614;28;20104;-63
2023/03/08 11:04:15;;;;;;;2.70;1.38;;;6.30;1.00;;;;;;4979074;28;20125;-64
2023/03/08 11:06:41;;;;;;;3.80;1.20;;;6.50;99.90;;;;;;4977525;28;20131;-63
2023/03/08 11:09:29;;;;;;;3.28;1.00;;;6.40;1.00;;;;;;4977513;28;20054;-63
2023/03/08 11:11:56;;;;;;;3.30;1.08;;;6.30;1.00;;;;;;4987933;28;20038;-63
2023/03/08 11:14:23;;;;;;;4.80;0.70;;;6.50;1.00;;;;;;4976091;28;20066;-63
2023/03/08 11:17:24;;;;;;;1.52;0.50;;;6.80;1.00;;;;;;5006866;28;20068;-62
2023/03/08 11:20:14;;;;;;;2.88;0.77;;;6.90;99.90;;;;;;4991934;28;20045;-63
2023/03/08 11:23:22;;;;;;;6.03;0.95;;;6.90;99.90;;;;;;5005397;28;20867;-63
2023/03/08 11:26:15;;;;;;;2.53;0.80;;;6.90;99.90;;;;;;4976525;28;20112;-62
2023/03/08 11:29:03;;;;;;;3.58;0.75;;;7.10;99.90;;;;;;4992643;28;20672;-64
2023/03/08 11:32:00;;;;;;;2.40;1.17;;;7.10;99.90;;;;;;5005071;28;20042;-62
2023/03/08 11:34:52;;;;;;;2.58;1.10;;;6.90;99.90;;;;;;4977356;28;20508;-63
2023/03/08 11:38:04;;;;;;;3.38;1.15;;;6.50;99.90;;;;;;4982995;28;20046;-62
2023/03/08 11:40:49;;;;;;;3.58;1.08;;;6.40;99.90;;;;;;4994302;28;20131;-64
2023/03/08 11:43:24;;;;;;;4.22;1.80;;;6.30;99.90;;;;;;4974754;28;20436;-62
2023/03/08 11:46:37;;;;;;;5.22;1.60;;;6.10;99.90;;;;;;4975125;28;20046;-64
2023/03/08 11:49:37;;;;;;;7.80;2.70;;;6.10;99.90;;;;;;4971757;28;20064;-62
2023/03/08 11:52:27;;;;;;;6.50;2.80;;;5.90;99.90;;;;;;4995019;28;20104;-63
2023/03/08 11:55:14;;;;;;;10.13;4.68;;;5.80;99.90;;;;;;4967962;28;20073;-64
2023/03/08 11:57:45;;;;;;;14.95;5.32;;;5.80;99.90;;;;;;4994354;28;20053;-62
2023/03/08 12:00:34;;;;;;;8.60;2.95;;;5.80;99.90;;;;;;4979925;28;20663;-63
2023/03/08 12:03:08;;;;;;;4.78;1.20;;;5.60;99.90;;;;;;4978368;28;20245;-61
2023/03/08 12:05:43;;;;;;;4.55;1.05;;;5.50;99.90;;;;;;4977755;28;20535;-62
2023/03/08 12:08:21;;;;;;;4.05;0.90;;;5.40;99.90;;;;;;4993783;28;20157;-62
2023/03/08 12:11:00;;;;;;;3.25;1.00;;;5.30;99.90;;;;;;5011218;28;20356;-63
2023/03/08 12:13:46;;;;;;;2.20;1.27;;;5.30;99.90;;;;;;4994701;28;20461;-63
2023/03/08 12:16:17;;;;;;;4.78;2.00;;;5.30;99.90;;;;;;4978944;28;20480;-63
2023/03/08 12:18:43;;;;;;;4.25;1.55;;;5.40;99.90;;;;;;4993635;28;20026;-63
2023/03/08 12:21:38;;;;;;;3.78;1.02;;;5.60;99.90;;;;;;4994673;28;20065;-63
2023/03/08 12:24:41;;;;;;;3.30;1.27;;;5.80;99.90;;;;;;4980264;28;20678;-63
2023/03/08 12:27:39;;;;;;;2.55;1.00;;;6.00;99.90;;;;;;5012795;28;20065;-62
2023/03/08 12:30:46;;;;;;;3.72;0.98;;;6.20;99.90;;;;;;5007784;28;20096;-63
2023/03/08 12:33:13;;;;;;;3.28;0.98;;;6.20;99.90;;;;;;4978700;28;20480;-62
2023/03/08 12:35:51;;;;;;;3.22;0.50;;;6.20;99.90;;;;;;4978698;28;20109;-63
2023/03/08 12:38:17;;;;;;;1.92;0.75;;;6.30;99.90;;;;;;5010776;28;20097;-63
2023/03/08 12:40:47;;;;;;;3.83;0.65;;;6.30;99.90;;;;;;4995458;28;20046;-64
2023/03/08 12:43:26;;;;;;;3.80;0.40;;;6.40;99.90;;;;;;4994405;28;20124;-63
2023/03/08 12:46:09;;;;;;;2.67;0.40;;;6.50;99.90;;;;;;4978633;28;20428;-64
2023/03/08 12:48:44;;;;;;;3.47;0.20;;;6.50;99.90;;;;;;5010421;28;20157;-62
2023/03/08 12:51:15;;;;;;;1.80;0.20;;;6.50;99.90;;;;;;4993474;28;20042;-62
2023/03/08 12:53:49;;;;;;;5.32;0.32;;;6.50;99.90;;;;;;4978535;28;20069;-62
2023/03/08 12:56:23;;;;;;;2.42;0.20;;;6.50;99.90;;;;;;4995149;28;20053;-63
2023/03/08 12:58:53;;;;;;;;;;;6.40;99.90;;;;;;5011119;28;20065;-62
2023/03/08 13:01:40;;;;;;;2.47;0.20;;;6.10;1.00;;;;;;4980810;28;19935;-62
2023/03/08 13:04:31;;;;;;;3.72;0.20;;;6.10;75.50;;;;;;4977068;28;20735;-63
2023/03/08 13:07:08;;;;;;;1.15;0.30;;;6.20;99.90;;;;;;5009226;28;20050;-63
2023/03/08 13:09:45;;;;;;;1.98;0.10;;;6.40;99.90;;;;;;4993346;28;20042;-63
2023/03/08 13:12:14;;;;;;;1.15;0.10;;;6.60;99.90;;;;;;4995146;28;20038;-63